Time;durP1;ratioP1;P1;durP2;ratioP2;P2;SDS_P1;SDS_P2;PMS_P1;PMS_P2;Temp;Humidity;BMP_temperature;BMP_pressure;BME280_temperature;BME280_humidity;BME280_pressure;Samples;Min_cycle;Max_cycle;Signal;HPM_P1;HPM_P2
2022/05/12 00:01:20;;;;;;;;;0.00;0.00;;;;;21.15;49.66;101415.78;5051884;28;8836;-71
2022/05/12 00:03:45;;;;;;;;;1.00;0.00;;;;;21.14;49.49;101414.06;5050587;28;8890;-71
2022/05/12 00:06:10;;;;;;;;;0.00;0.00;;;;;21.13;49.54;101421.13;5051002;28;8774;-71
2022/05/12 00:08:36;;;;;;;;;0.00;0.00;;;;;21.13;49.59;101423.78;5051871;28;8802;-71
2022/05/12 00:11:02;;;;;;;;;1.00;0.00;;;;;21.14;49.60;101424.69;5051211;28;8898;-71
2022/05/12 00:13:27;;;;;;;;;0.00;0.00;;;;;21.14;49.60;101432.66;5051691;28;9566;-71
2022/05/12 00:15:53;;;;;;;;;0.00;0.00;;;;;21.13;49.81;101437.06;5051243;28;8809;-71
2022/05/12 00:18:18;;;;;;;;;0.00;0.00;;;;;21.11;49.32;101433.53;5051166;28;8778;-71
2022/05/12 00:20:44;;;;;;;;;0.00;0.00;;;;;21.13;49.63;101441.50;5051459;28;8794;-71
2022/05/12 00:23:26;;;;;;;;;0.00;0.00;;;;;21.12;49.48;101445.94;5051552;28;8790;-71
2022/05/12 00:25:52;;;;;;;;;0.00;0.00;;;;;21.12;49.65;101450.34;5051078;28;8762;-71
2022/05/12 00:28:20;;;;;;;;;0.00;0.00;;;;;21.13;49.82;101457.44;5051225;28;9120;-71
2022/05/12 00:30:48;;;;;;;;;0.00;0.00;;;;;21.11;49.54;101462.75;5050691;28;9935;-71
2022/05/12 00:33:14;;;;;;;;;0.00;0.00;;;;;21.11;50.00;101460.09;5050658;28;9051;-71
2022/05/12 00:35:42;;;;;;;;;0.00;0.00;;;;;21.12;49.61;101468.94;5051393;28;9199;-71
2022/05/12 00:38:08;;;;;;;;;0.00;0.00;;;;;21.09;49.73;101468.94;5050752;28;9267;-71
2022/05/12 00:40:33;;;;;;;;;0.00;0.00;;;;;21.11;49.62;101461.84;5051283;28;8938;-71
2022/05/12 00:43:05;;;;;;;;;0.00;0.00;;;;;21.10;49.51;101463.63;5050738;28;9127;-71
2022/05/12 00:45:35;;;;;;;;;0.00;0.00;;;;;21.10;49.75;101460.97;5050429;28;9389;-71
2022/05/12 00:48:02;;;;;;;;;0.00;0.00;;;;;21.08;49.57;101459.22;5050831;28;9103;-71
2022/05/12 00:50:34;;;;;;;;;0.00;0.00;;;;;21.08;49.57;101465.41;5051121;28;9197;-71
2022/05/12 00:53:03;;;;;;;;;0.00;0.00;;;;;21.07;49.85;101463.63;5050296;28;9263;-71
2022/05/12 00:55:34;;;;;;;;;0.00;0.00;;;;;21.08;49.94;101469.84;5051030;28;9110;-71
2022/05/12 00:58:04;;;;;;;;;0.00;0.00;;;;;21.08;49.64;101469.84;5050273;28;9293;-71
2022/05/12 01:00:30;;;;;;;;;1.00;0.00;;;;;21.07;49.73;101465.44;5050557;28;9181;-71
2022/05/12 01:02:57;;;;;;;;;0.00;0.00;;;;;21.06;49.78;101466.34;5050524;28;9134;-71
2022/05/12 01:05:24;;;;;;;;;0.00;0.00;;;;;21.06;49.79;101469.00;5050948;28;8890;-71
2022/05/12 01:07:55;;;;;;;;;0.00;0.00;;;;;21.06;49.82;101471.66;5050047;28;9115;-71
2022/05/12 01:10:20;;;;;;;;;0.00;0.00;;;;;21.05;49.89;101477.84;5050764;28;9254;-71
2022/05/12 01:12:48;;;;;;;;;0.00;0.00;;;;;21.07;49.91;101478.72;5050023;28;9967;-72
2022/05/12 01:15:17;;;;;;;;;0.00;0.00;;;;;21.05;49.73;101481.38;5050423;28;8940;-71
2022/05/12 01:17:43;;;;;;;;;0.00;0.00;;;;;21.04;49.94;101479.63;5050380;28;9192;-71
2022/05/12 01:20:11;;;;;;;;;0.00;0.00;;;;;21.04;49.85;101476.97;5050224;28;9257;-71
2022/05/12 01:22:51;;;;;;;;;0.00;0.00;;;;;21.04;50.00;101486.69;5049969;28;9039;-71
2022/05/12 01:25:20;;;;;;;;;1.00;1.00;;;;;21.03;49.84;101493.78;5050289;28;9814;-71
2022/05/12 01:27:45;;;;;;;;;0.00;0.00;;;;;21.02;49.83;101485.84;5049548;28;9173;-71
2022/05/12 01:30:14;;;;;;;;;0.00;0.00;;;;;21.03;49.68;101487.63;5050526;28;9109;-71
2022/05/12 01:32:40;;;;;;;;;0.00;0.00;;;;;21.01;50.03;101490.28;5050223;28;8769;-71
2022/05/12 01:35:06;;;;;;;;;1.00;0.00;;;;;21.01;49.91;101490.28;5049727;28;9192;-71
2022/05/12 01:37:32;;;;;;;;;1.00;0.00;;;;;21.01;49.90;101492.94;5050102;28;9131;-71
2022/05/12 01:39:57;;;;;;;;;0.00;0.00;;;;;21.01;49.94;101494.69;5049961;28;9189;-71
2022/05/12 01:42:23;;;;;;;;;0.00;0.00;;;;;21.02;49.95;101501.78;5049849;28;8782;-71
2022/05/12 01:44:49;;;;;;;;;0.00;0.00;;;;;20.99;49.82;101501.81;5049900;28;9563;-71
2022/05/12 01:47:15;;;;;;;;;0.00;0.00;;;;;21.00;49.85;101496.47;5049945;28;8782;-71
2022/05/12 01:49:41;;;;;;;;;0.00;0.00;;;;;20.99;49.65;101494.75;5049652;28;8770;-71
2022/05/12 01:52:07;;;;;;;;;0.00;0.00;;;;;20.99;49.96;101508.00;5049665;28;9192;-71
2022/05/12 01:54:32;;;;;;;;;0.33;0.00;;;;;20.97;49.84;101504.47;5049600;28;8924;-72
2022/05/12 01:56:58;;;;;;;;;0.00;0.00;;;;;20.99;50.21;101505.34;5049364;28;9115;-71
2022/05/12 01:59:26;;;;;;;;;0.00;0.00;;;;;20.97;49.93;101499.16;5049793;28;8782;-71
2022/05/12 02:01:52;;;;;;;;;0.00;0.00;;;;;20.98;49.94;101505.34;5049011;28;8821;-72
2022/05/12 02:04:18;;;;;;;;;0.00;0.00;;;;;20.99;50.00;101515.97;5049266;28;10109;-71
2022/05/12 02:06:44;;;;;;;;;0.00;0.00;;;;;20.98;50.05;101522.19;5049276;28;9126;-71
2022/05/12 02:09:10;;;;;;;;;0.00;0.00;;;;;20.98;49.98;101518.63;5049686;28;8851;-71
2022/05/12 02:11:36;;;;;;;;;0.00;0.00;;;;;20.97;49.88;101532.78;5049115;28;8797;-71
2022/05/12 02:14:04;;;;;;;;;0.00;0.00;;;;;20.96;49.89;101528.38;5049096;28;9393;-71
2022/05/12 02:16:30;;;;;;;;;0.00;0.00;;;;;20.96;50.21;101536.34;5049648;28;8774;-72
2022/05/12 02:18:55;;;;;;;;;0.00;0.00;;;;;20.97;49.99;101543.41;5048697;28;10033;-71
2022/05/12 02:21:21;;;;;;;;;0.00;0.00;;;;;20.95;49.87;101546.09;5049275;28;8912;-71
2022/05/12 02:23:46;;;;;;;;;0.00;0.00;;;;;20.95;49.94;101543.44;5048321;28;9601;-71
2022/05/12 02:26:12;;;;;;;;;0.00;0.00;;;;;20.95;49.93;101547.88;5049567;28;8793;-72
2022/05/12 02:28:37;;;;;;;;;0.00;0.00;;;;;20.94;49.81;101538.13;5048823;28;8859;-72
2022/05/12 02:31:03;;;;;;;;;0.00;0.00;;;;;20.93;49.81;101547.00;5048557;28;8781;-72
2022/05/12 02:33:28;;;;;;;;;0.00;0.00;;;;;20.94;49.85;101554.06;5049326;28;8774;-71
2022/05/12 02:35:54;;;;;;;;;0.00;0.00;;;;;20.94;50.05;101556.72;5049006;28;8774;-72
2022/05/12 02:38:19;;;;;;;;;0.00;0.00;;;;;20.94;49.98;101548.75;5048995;28;8781;-71
2022/05/12 02:40:44;;;;;;;;;0.00;0.00;;;;;20.92;50.11;101562.03;5049313;28;8792;-71
2022/05/12 02:43:25;;;;;;;;;0.00;0.00;;;;;20.93;50.07;101555.84;5048836;28;8782;-71
2022/05/12 02:45:50;;;;;;;;;0.00;0.00;;;;;20.91;50.08;101562.94;5048455;28;8811;-72
2022/05/12 02:48:17;;;;;;;;;0.00;0.00;;;;;20.91;50.10;101573.56;5049429;28;9239;-71
2022/05/12 02:50:43;;;;;;;;;1.00;0.00;;;;;20.91;50.00;101567.38;5049120;28;9499;-71
2022/05/12 02:53:08;;;;;;;;;0.00;0.00;;;;;20.93;50.01;101571.75;5048894;28;9233;-71
2022/05/12 02:55:33;;;;;;;;;0.00;0.00;;;;;20.92;49.84;101575.31;5049383;28;8802;-71
2022/05/12 02:57:58;;;;;;;;;0.00;0.00;;;;;20.90;49.97;101582.41;5048959;28;8786;-71
2022/05/12 03:00:23;;;;;;;;;0.00;0.00;;;;;20.90;49.91;101586.84;5048696;28;8789;-71
2022/05/12 03:02:49;;;;;;;;;0.00;0.00;;;;;20.91;49.96;101578.88;5048830;28;8898;-71
2022/05/12 03:05:15;;;;;;;;;0.00;0.00;;;;;20.90;50.07;101579.75;5048902;28;8856;-71
2022/05/12 03:07:41;;;;;;;;;0.00;0.00;;;;;20.89;49.92;101591.28;5049004;28;8778;-71
2022/05/12 03:10:07;;;;;;;;;0.00;0.00;;;;;20.90;50.24;101586.84;5049079;28;9027;-71
2022/05/12 03:12:33;;;;;;;;;2.00;0.00;;;;;20.88;50.24;101589.53;5048857;28;8784;-71
2022/05/12 03:14:58;;;;;;;;;0.33;0.00;;;;;20.91;50.17;101593.94;5048524;28;9163;-71
2022/05/12 03:17:23;;;;;;;;;0.00;0.00;;;;;20.88;49.97;101591.31;5049068;28;8798;-71
2022/05/12 03:19:48;;;;;;;;;0.00;0.00;;;;;20.87;49.91;101603.69;5048450;28;8876;-71
2022/05/12 03:22:14;;;;;;;;;0.00;0.00;;;;;20.88;49.99;101607.22;5048582;28;8810;-72
2022/05/12 03:24:39;;;;;;;;;0.00;0.00;;;;;20.88;50.02;101604.56;5049094;28;8834;-71
2022/05/12 03:27:04;;;;;;;;;0.00;0.00;;;;;20.86;50.20;101615.19;5048136;28;8881;-71
2022/05/12 03:29:29;;;;;;;;;0.00;0.00;;;;;20.86;50.13;101615.19;5049191;28;8790;-71
2022/05/12 03:31:55;;;;;;;;;0.00;0.00;;;;;20.86;50.10;101616.97;5048704;28;8793;-71
2022/05/12 03:34:20;;;;;;;;;0.00;0.00;;;;;20.86;50.07;101625.81;5048553;28;8818;-71
2022/05/12 03:36:48;;;;;;;;;0.00;0.00;;;;;20.85;50.18;101626.69;5048850;28;8824;-71
2022/05/12 03:39:13;;;;;;;;;0.00;0.00;;;;;20.86;49.92;101627.56;5049663;28;8777;-71
2022/05/12 03:41:39;;;;;;;;;0.00;0.00;;;;;20.83;50.13;101624.97;5052158;28;9150;-71
2022/05/12 03:46:48;;;;;;;;;0.00;0.00;;;;;20.86;50.00;101632.88;5051780;28;8758;-71
2022/05/12 03:49:13;;;;;;;;;0.00;0.00;;;;;20.85;49.98;101629.34;5052037;28;9124;-72
2022/05/12 03:51:39;;;;;;;;;0.00;0.00;;;;;20.86;50.05;101635.53;5052734;28;8809;-71
2022/05/12 03:54:04;;;;;;;;;0.00;0.00;;;;;20.84;50.06;101638.22;5051909;28;8806;-71
2022/05/12 03:56:32;;;;;;;;;0.00;0.00;;;;;20.83;50.21;101640.88;5051660;28;8794;-71
2022/05/12 03:58:57;;;;;;;;;0.00;0.00;;;;;20.83;49.87;101651.50;5051787;28;8976;-71
2022/05/12 04:01:22;;;;;;;;;0.00;0.00;;;;;20.81;50.15;101648.84;5051706;28;9201;-71
2022/05/12 04:03:48;;;;;;;;;0.00;0.00;;;;;20.83;50.09;101647.06;5051147;28;8805;-71
2022/05/12 04:06:14;;;;;;;;;0.00;0.00;;;;;20.81;50.11;101648.84;5052333;28;8790;-71
2022/05/12 04:08:39;;;;;;;;;0.00;0.00;;;;;20.82;50.16;101653.28;5052035;28;8778;-71
2022/05/12 04:11:07;;;;;;;;;0.00;0.00;;;;;20.82;50.15;101658.56;5051145;28;8794;-71
2022/05/12 04:13:32;;;;;;;;;0.00;0.00;;;;;20.82;50.08;101655.03;5051821;28;8762;-71
2022/05/12 04:15:58;;;;;;;;;0.00;0.00;;;;;20.81;49.94;101664.78;5051091;28;9230;-71
2022/05/12 04:18:23;;;;;;;;;0.00;0.00;;;;;20.81;50.03;101675.38;5050934;28;8793;-71
2022/05/12 04:20:48;;;;;;;;;0.00;0.00;;;;;20.80;50.05;101665.69;5051421;28;8863;-71
2022/05/12 04:23:13;;;;;;;;;0.00;0.00;;;;;20.81;49.89;101666.56;5051039;28;8948;-71
2022/05/12 04:25:39;;;;;;;;;0.00;0.00;;;;;20.81;49.91;101670.06;5051604;28;8829;-71
2022/05/12 04:28:05;;;;;;;;;0.00;0.00;;;;;20.79;50.04;101669.22;5051146;28;8867;-71
2022/05/12 04:30:31;;;;;;;;;0.00;0.00;;;;;20.81;49.87;101674.53;5051200;28;8794;-71
2022/05/12 04:35:09;;;;;;;;;0.00;0.00;;;;;20.79;50.11;101684.25;5051399;28;8782;-71
2022/05/12 04:35:44;;;;;;;;;1.00;0.00;;;;;20.79;50.10;101686.91;5051098;28;9266;-71
2022/05/12 04:38:11;;;;;;;;;0.33;0.00;;;;;20.78;49.98;101693.09;5051047;28;9185;-71
2022/05/12 04:40:36;;;;;;;;;0.00;0.00;;;;;20.79;50.13;101693.13;5051524;28;9145;-72
2022/05/12 04:43:01;;;;;;;;;0.00;0.00;;;;;20.79;49.79;101693.13;5050708;28;9989;-72
2022/05/12 04:45:31;;;;;;;;;0.00;0.00;;;;;20.79;49.92;101695.75;5050953;28;8829;-71
2022/05/12 04:47:56;;;;;;;;;2.00;0.00;;;;;20.79;50.02;101700.19;5051124;28;8794;-72
2022/05/12 04:50:42;;;;;;;;;0.00;0.00;;;;;20.80;49.91;101704.63;5050461;28;9118;-72
2022/05/12 04:53:08;;;;;;;;;0.00;0.00;;;;;20.79;50.00;101708.16;5050621;28;8956;-71
2022/05/12 04:55:34;;;;;;;;;0.00;0.00;;;;;20.78;49.88;101706.38;5051294;28;9039;-71
2022/05/12 04:58:00;;;;;;;;;1.00;0.00;;;;;20.78;49.76;101701.97;5050665;28;9055;-71
2022/05/12 05:00:29;;;;;;;;;0.00;0.00;;;;;20.79;49.86;101709.03;5050686;28;8836;-71
2022/05/12 05:02:55;;;;;;;;;0.00;0.00;;;;;20.81;49.77;101712.53;5050851;28;8790;-71
2022/05/12 05:05:20;;;;;;;;;0.67;0.67;;;;;20.83;49.73;101709.91;5050994;28;9136;-72
2022/05/12 05:07:46;;;;;;;;;0.00;0.00;;;;;20.85;49.83;101710.75;5050061;28;9340;-71
2022/05/12 05:10:12;;;;;;;;;0.00;0.00;;;;;20.86;49.78;101713.41;5050759;28;8840;-72
2022/05/12 05:12:39;;;;;;;;;0.00;0.00;;;;;20.88;49.47;101724.03;5050497;28;8789;-71
2022/05/12 05:15:05;;;;;;;;;0.00;0.00;;;;;20.88;49.72;101722.25;5050371;28;8805;-72
2022/05/12 05:17:30;;;;;;;;;0.00;0.00;;;;;20.90;49.50;101732.84;5050123;28;9132;-72
2022/05/12 05:19:56;;;;;;;;;0.00;0.00;;;;;20.90;49.48;101730.19;5047427;28;9204;-72
2022/05/12 05:22:21;;;;;;;;;0.00;0.00;;;;;20.91;49.35;101726.66;5050446;28;8820;-72
2022/05/12 05:24:49;;;;;;;;;1.00;0.00;;;;;20.92;49.44;101741.69;5049608;28;8870;-72
2022/05/12 05:27:14;;;;;;;;;0.00;0.00;;;;;20.93;49.39;101739.03;5050259;28;8770;-72
2022/05/12 05:29:41;;;;;;;;;0.00;0.00;;;;;20.94;49.36;101745.22;5050424;28;9222;-71
2022/05/12 05:32:09;;;;;;;;;0.00;0.00;;;;;20.94;49.34;101738.13;5049906;28;9194;-72
2022/05/12 05:34:34;;;;;;;;;0.00;0.00;;;;;20.95;49.34;101741.69;5050041;28;9009;-72
2022/05/12 05:37:00;;;;;;;;;0.00;0.00;;;;;20.95;49.45;101744.34;5049682;28;9723;-73
2022/05/12 05:39:27;;;;;;;;;0.00;0.00;;;;;20.96;49.06;101748.72;5050153;28;8782;-73
2022/05/12 05:41:57;;;;;;;;;0.00;0.00;;;;;20.95;49.41;101750.53;5049388;28;8766;-73
2022/05/12 05:44:23;;;;;;;;;1.00;0.00;;;;;20.97;49.32;101753.16;5049843;28;9893;-73
2022/05/12 05:46:48;;;;;;;;;0.00;0.00;;;;;20.96;49.53;101762.88;5049524;28;9189;-73
2022/05/12 05:49:14;;;;;;;;;0.00;0.00;;;;;20.98;49.42;101770.84;5049591;28;9135;-73
2022/05/12 05:54:24;;;;;;;;;0.00;0.00;;;;;20.97;49.38;101777.03;5049844;28;9127;-73
2022/05/12 05:56:49;;;;;;;;;0.00;0.00;;;;;20.97;49.29;101785.00;5049384;28;9055;-73
2022/05/12 05:59:14;;;;;;;;;0.00;0.00;;;;;20.98;49.39;101792.97;5049770;28;8887;-73
2022/05/12 06:01:40;;;;;;;;;0.00;0.00;;;;;20.97;49.30;101790.31;5049139;28;8814;-73
2022/05/12 06:04:05;;;;;;;;;0.00;0.00;;;;;21.01;49.64;101794.72;5049492;28;8809;-71
2022/05/12 06:06:31;;;;;;;;;0.33;0.33;;;;;21.10;55.77;101810.63;5049350;28;8808;-71
2022/05/12 06:08:57;;;;;;;;;0.00;0.00;;;;;21.12;51.48;101807.09;5049140;28;8809;-71
2022/05/12 06:11:22;;;;;;;;;2.00;0.00;;;;;21.28;59.83;101820.25;5049789;28;9198;-71
2022/05/12 06:13:48;;;;;;;;;1.67;0.33;;;;;21.37;55.38;101814.91;5048872;28;8802;-71
2022/05/12 06:16:14;;;;;;;;;1.00;1.00;;;;;21.47;59.14;101819.25;5049282;28;8790;-69
2022/05/12 06:18:41;;;;;;;;;0.33;0.00;;;;;21.46;57.89;101825.44;5049258;28;9137;-70
2022/05/12 06:21:12;;;;;;;;;1.00;1.00;;;;;21.43;57.94;101828.13;5048861;28;9243;-70
2022/05/12 06:23:38;;;;;;;;;0.33;0.00;;;;;21.40;58.38;101831.69;5048932;28;9319;-70
2022/05/12 06:26:06;;;;;;;;;0.67;0.67;;;;;21.42;59.11;101836.97;5049270;28;10016;-70
2022/05/12 06:28:31;;;;;;;;;2.33;1.00;;;;;21.42;60.45;101851.16;5049059;28;9171;-70
2022/05/12 06:30:57;;;;;;;;;1.33;1.00;;;;;21.36;60.01;101845.88;5046268;28;9298;-71
2022/05/12 06:33:22;;;;;;;;;3.00;2.00;;;;;21.35;59.60;101854.75;5046175;28;8818;-70
2022/05/12 06:35:48;;;;;;;;;2.00;2.00;;;;;21.17;59.04;101853.09;5048728;28;8786;-70
2022/05/12 06:38:13;;;;;;;;;0.67;0.67;;;;;21.14;58.79;101850.47;5048791;28;8797;-71
2022/05/12 06:40:39;;;;;;;;;1.67;1.67;;;;;21.07;57.68;101858.44;5049687;28;8797;-71
2022/05/12 06:43:07;;;;;;;;;1.00;1.00;;;;;21.13;56.97;101867.28;5048924;28;8790;-71
2022/05/12 06:45:33;;;;;;;;;0.00;0.00;;;;;21.13;56.49;101869.03;5048661;28;8798;-71
2022/05/12 06:47:58;;;;;;;;;1.00;1.00;;;;;21.13;56.15;101866.41;5049606;28;9216;-71
2022/05/12 06:50:26;;;;;;;;;1.00;1.00;;;;;21.19;55.32;101869.00;5050020;28;8854;-71
2022/05/12 06:52:53;;;;;;;;;1.00;1.00;;;;;21.23;54.60;101875.19;5049133;28;8836;-71
2022/05/12 06:55:20;;;;;;;;;0.67;0.67;;;;;21.14;53.99;101868.16;5050377;28;9193;-71
2022/05/12 06:57:47;;;;;;;;;1.00;0.00;;;;;21.13;53.50;101872.59;5049395;28;9255;-71
2022/05/12 07:00:16;;;;;;;;;1.00;1.00;;;;;21.18;53.97;101873.44;5049872;28;9102;-71
2022/05/12 07:02:45;;;;;;;;;0.00;0.00;;;;;21.06;52.52;101865.53;5043663;28;9252;-72
2022/05/12 07:05:12;;;;;;;;;2.00;2.00;;;;;21.12;51.97;101868.16;5047514;28;9147;-71
2022/05/12 07:07:38;;;;;;;;;1.00;1.00;;;;;21.14;51.90;101879.69;5049518;28;9302;-71
2022/05/12 07:10:05;;;;;;;;;3.00;1.00;;;;;21.15;52.20;101880.53;5029615;28;9135;-71
2022/05/12 07:12:30;;;;;;;;;1.00;0.00;;;;;21.20;51.50;101895.56;5029710;28;8796;-71
2022/05/12 07:14:56;;;;;;;;;0.67;0.67;;;;;21.22;51.64;101895.53;5042782;28;9153;-71
2022/05/12 07:17:22;;;;;;;;;0.00;0.00;;;;;21.14;50.97;101892.97;5048403;28;8822;-71
2022/05/12 07:19:49;;;;;;;;;2.67;2.67;;;;;21.14;51.09;101890.31;5052441;28;8817;-71
2022/05/12 07:27:43;;;;;;;;;0.00;0.00;;;;;21.03;50.26;101892.06;5052923;28;9260;-71
2022/05/12 07:30:10;;;;;;;;;4.00;0.67;;;;;21.00;50.01;101905.34;5052589;28;9097;-71
2022/05/12 07:32:37;;;;;;;;;0.00;0.00;;;;;21.09;49.17;101902.66;5052573;28;9883;-72
2022/05/12 07:35:06;;;;;;;;;0.00;0.00;;;;;21.15;48.96;101899.13;5051766;28;9228;-71
2022/05/12 07:37:32;;;;;;;;;0.00;0.00;;;;;21.18;49.01;101905.28;5051141;28;9134;-70
2022/05/12 07:39:57;;;;;;;;;1.00;1.00;;;;;21.15;49.00;101913.28;5052305;28;9026;-70
2022/05/12 07:42:23;;;;;;;;;0.00;0.00;;;;;21.18;48.85;101912.41;5052225;28;8863;-70
2022/05/12 07:44:48;;;;;;;;;2.00;1.00;;;;;21.17;48.79;101915.94;5052006;28;8806;-70
2022/05/12 07:47:13;;;;;;;;;1.00;0.00;;;;;21.10;48.04;101912.41;5051977;28;8806;-69
2022/05/12 07:49:40;;;;;;;;;0.00;0.00;;;;;21.12;48.70;101915.06;5052205;28;8883;-70
2022/05/12 07:52:08;;;;;;;;;1.00;0.00;;;;;21.13;47.87;101916.84;5052064;28;8786;-69
2022/05/12 07:54:34;;;;;;;;;0.00;0.00;;;;;21.14;47.43;101919.50;5051590;28;9124;-70
2022/05/12 07:57:00;;;;;;;;;0.67;0.67;;;;;21.11;48.03;101919.50;5052040;28;9185;-70
2022/05/12 07:59:27;;;;;;;;;1.00;0.00;;;;;21.11;47.82;101919.50;5052230;28;9104;-69
2022/05/12 08:01:53;;;;;;;;;0.00;0.00;;;;;21.15;47.14;101921.25;5051671;28;9003;-69
2022/05/12 08:04:18;;;;;;;;;0.00;0.00;;;;;21.19;46.99;101928.31;5052129;28;9075;-71
2022/05/12 08:06:46;;;;;;;;;0.00;0.00;;;;;21.16;47.15;101923.03;5051404;28;8917;-70
2022/05/12 08:09:12;;;;;;;;;0.00;0.00;;;;;21.17;47.16;101916.84;5051547;28;8796;-70
2022/05/12 08:11:39;;;;;;;;;0.00;0.00;;;;;21.16;46.63;101919.50;5052131;28;9185;-70
2022/05/12 08:14:04;;;;;;;;;1.00;1.00;;;;;21.19;46.27;101923.00;5051548;28;9209;-71
2022/05/12 08:16:30;;;;;;;;;0.00;0.00;;;;;21.19;46.47;101927.44;5051299;28;9253;-70
2022/05/12 08:18:55;;;;;;;;;2.00;1.00;;;;;21.19;45.68;101922.13;5051243;28;8855;-70
2022/05/12 08:21:24;;;;;;;;;0.00;0.00;;;;;21.19;45.95;101927.44;5051827;28;8789;-70
2022/05/12 08:23:51;;;;;;;;;0.33;0.33;;;;;21.20;46.16;101924.78;5046890;28;9600;-70
2022/05/12 08:26:17;;;;;;;;;0.33;0.00;;;;;21.21;45.85;101923.00;5050913;28;9274;-71
2022/05/12 08:28:44;;;;;;;;;1.00;0.00;;;;;21.22;45.25;101929.22;5050916;28;9202;-70
2022/05/12 08:31:09;;;;;;;;;1.00;0.00;;;;;21.16;45.31;101927.44;5050929;28;9261;-71
2022/05/12 08:33:34;;;;;;;;;0.00;0.00;;;;;21.19;45.33;101930.97;5051642;28;9276;-70
2022/05/12 08:36:00;;;;;;;;;0.00;0.00;;;;;21.20;45.34;101930.09;5050768;28;8792;-71
2022/05/12 08:38:25;;;;;;;;;0.00;0.00;;;;;21.22;45.00;101932.72;5050638;28;8818;-71
2022/05/12 08:41:03;;;;;;;;;1.00;0.00;;;;;21.22;45.08;101938.03;5049251;28;8850;-71
2022/05/12 08:43:37;;;;;;;;;0.00;0.00;;;;;21.26;44.83;101939.78;5050639;28;8793;-72
2022/05/12 08:46:08;;;;;;;;;0.00;0.00;;;;;21.23;44.76;101945.13;5050214;28;9267;-71
2022/05/12 08:48:39;;;;;;;;;0.00;0.00;;;;;21.24;44.58;101946.91;5051086;28;9280;-70
2022/05/12 08:51:06;;;;;;;;;0.00;0.00;;;;;21.24;44.38;101944.25;5049853;28;9108;-70
2022/05/12 08:53:43;;;;;;;;;0.00;0.00;;;;;21.16;43.74;101935.41;5050578;28;9202;-70
2022/05/12 08:56:09;;;;;;;;;0.00;0.00;;;;;21.14;44.53;101940.75;5050411;28;9127;-70
2022/05/12 08:58:37;;;;;;;;;0.00;0.00;;;;;21.24;43.90;101948.66;5050706;28;9340;-70
2022/05/12 09:01:08;;;;;;;;;3.00;0.00;;;;;21.27;44.28;101948.66;5050257;28;8801;-70
2022/05/12 09:03:52;;;;;;;;;0.33;0.00;;;;;21.08;43.70;101947.81;5050423;28;10057;-70
2022/05/12 09:06:20;;;;;;;;;1.00;0.00;;;;;21.04;43.78;101954.03;5030478;28;9123;-70
2022/05/12 09:09:05;;;;;;;;;0.00;0.00;;;;;21.07;43.56;101956.69;5030380;28;9020;-71
2022/05/12 09:11:39;;;;;;;;;0.00;0.00;;;;;21.13;43.42;101938.09;5042727;28;9169;-70
2022/05/12 09:14:12;;;;;;;;;0.00;0.00;;;;;21.16;43.09;101949.59;5048825;28;9203;-70
2022/05/12 09:16:38;;;;;;;;;0.00;0.00;;;;;21.23;43.49;101944.25;5050168;28;9197;-71
2022/05/12 09:19:04;;;;;;;;;0.00;0.00;;;;;21.26;43.16;101941.59;5049545;28;9061;-70
2022/05/12 09:21:35;;;;;;;;;0.00;0.00;;;;;21.26;42.84;101953.06;5050373;28;8835;-70
2022/05/12 09:24:03;;;;;;;;;0.00;0.00;;;;;21.28;42.59;101948.66;5048163;28;9089;-70
2022/05/12 09:26:45;;;;;;;;;0.00;0.00;;;;;21.31;43.21;101953.06;5049846;28;9108;-70
2022/05/12 09:29:25;;;;;;;;;0.00;0.00;;;;;21.23;42.54;101946.91;5050661;28;9200;-68
2022/05/12 09:32:02;;;;;;;;;0.00;0.00;;;;;21.15;42.85;101945.16;5049668;28;9033;-71
2022/05/12 09:34:36;;;;;;;;;0.00;0.00;;;;;21.22;42.42;101948.66;5048415;28;9158;-70
2022/05/12 09:37:13;;;;;;;;;0.00;0.00;;;;;21.14;42.63;101946.06;5049471;28;9223;-69
2022/05/12 09:39:51;;;;;;;;;0.00;0.00;;;;;21.19;42.74;101948.69;5050186;28;9106;-70
2022/05/12 09:42:28;;;;;;;;;1.00;0.00;;;;;21.26;42.43;101944.25;5049934;28;9213;-70
2022/05/12 09:45:08;;;;;;;;;1.00;0.00;;;;;21.29;42.33;101938.91;5047607;28;9170;-70
2022/05/12 09:47:34;;;;;;;;;0.00;0.00;;;;;21.31;41.86;101943.31;5050315;28;9111;-70
2022/05/12 09:50:26;;;;;;;;;0.00;0.00;;;;;21.30;42.22;101943.31;5050350;28;9122;-70
2022/05/12 09:52:54;;;;;;;;;0.00;0.00;;;;;21.31;41.57;101948.63;5049508;28;9206;-69
2022/05/12 09:55:27;;;;;;;;;0.33;0.00;;;;;21.32;41.67;101950.41;5047849;28;9163;-69
2022/05/12 09:58:14;;;;;;;;;0.00;0.00;;;;;21.31;41.48;101948.63;5049695;28;9115;-70
2022/05/12 10:00:44;;;;;;;;;1.00;0.00;;;;;21.34;41.59;101947.72;5049876;28;9253;-70
2022/05/12 10:09:21;;;;;;;;;0.00;0.00;;;;;21.40;41.91;101953.91;5048951;28;9185;-71
2022/05/12 10:12:08;;;;;;;;;0.00;0.00;;;;;21.41;41.09;101960.09;5039719;28;9061;-71
2022/05/12 10:14:46;;;;;;;;;0.00;0.00;;;;;21.39;40.99;101957.44;5048845;28;9141;-70
2022/05/12 10:17:32;;;;;;;;;0.00;0.00;;;;;21.39;40.88;101960.09;5050001;28;9301;-70
2022/05/12 10:20:08;;;;;;;;;0.00;0.00;;;;;21.39;40.67;101959.22;5049704;28;9241;-70
2022/05/12 10:22:42;;;;;;;;;2.00;1.00;;;;;21.36;39.74;101960.13;5049421;28;9257;-70
2022/05/12 10:25:21;;;;;;;;;0.00;0.00;;;;;21.41;39.67;101954.75;5048417;28;9161;-70
2022/05/12 10:27:56;;;;;;;;;1.00;1.00;;;;;21.43;39.67;101959.19;5049932;28;9070;-69
2022/05/12 10:30:33;;;;;;;;;0.67;0.67;;;;;21.41;40.26;101960.97;5049578;28;9171;-68
2022/05/12 10:33:16;;;;;;;;;1.00;1.00;;;;;21.49;40.45;101956.50;5049555;28;9322;-71
2022/05/12 10:35:55;;;;;;;;;0.33;0.33;;;;;21.54;40.53;101957.38;5048777;28;9364;-71
2022/05/12 10:38:23;;;;;;;;;0.00;0.00;;;;;21.58;40.70;101960.88;5049546;28;9104;-71
2022/05/12 10:40:56;;;;;;;;;1.00;1.00;;;;;21.58;40.74;101959.13;5049216;28;9236;-71
2022/05/12 10:43:38;;;;;;;;;1.00;1.00;;;;;21.59;40.76;101950.25;5049223;28;10243;-71
2022/05/12 10:46:17;;;;;;;;;0.00;0.00;;;;;21.60;41.18;101954.66;5048992;28;9213;-70
2022/05/12 10:48:54;;;;;;;;;1.00;1.00;;;;;21.64;41.36;101950.22;5049408;28;9270;-71
2022/05/12 10:51:22;;;;;;;;;1.00;1.00;;;;;21.64;41.52;101950.22;5049056;28;9254;-71
2022/05/12 10:54:18;;;;;;;;;0.33;0.33;;;;;21.64;41.39;101951.09;5047849;28;9639;-71
2022/05/12 10:56:53;;;;;;;;;0.33;0.33;;;;;21.64;41.78;101953.75;5049738;28;9174;-71
2022/05/12 10:59:45;;;;;;;;;1.00;1.00;;;;;21.65;41.67;101941.34;5049776;28;9257;-71
2022/05/12 11:02:20;;;;;;;;;1.75;1.75;;;;;21.66;41.46;101944.00;5049383;28;9329;-71
2022/05/12 11:04:53;;;;;;;;;0.33;0.33;;;;;21.67;41.68;101939.53;5047220;28;9654;-71
2022/05/12 11:07:34;;;;;;;;;3.00;2.00;;;;;21.69;41.89;101941.31;5049926;28;9195;-71
2022/05/12 11:10:19;;;;;;;;;1.33;1.00;;;;;21.72;41.73;101937.75;5048965;28;9369;-70
2022/05/12 11:12:56;;;;;;;;;1.00;1.00;;;;;21.72;41.59;101932.44;5047702;28;9234;-70
2022/05/12 11:15:31;;;;;;;;;1.33;1.00;;;;;21.74;41.93;101943.06;5029841;28;9204;-71
2022/05/12 11:18:01;;;;;;;;;2.00;1.33;;;;;21.75;42.17;101948.38;5042179;28;9275;-70
2022/05/12 11:20:33;;;;;;;;;1.67;1.67;;;;;21.74;41.96;101932.44;5049111;28;9297;-70
2022/05/12 11:23:19;;;;;;;;;1.00;1.00;;;;;21.77;42.22;101937.72;5049423;28;9332;-70
2022/05/12 11:26:05;;;;;;;;;1.00;1.00;;;;;21.79;42.00;101938.59;5049168;28;9506;-70
2022/05/12 11:31:48;;;;;;;;;1.67;1.67;;;;;21.78;42.34;101934.19;5049762;28;9345;-70
2022/05/12 11:34:23;;;;;;;;;1.33;1.33;;;;;21.79;42.13;101935.94;5049403;28;9329;-70
2022/05/12 11:36:52;;;;;;;;;2.00;2.00;;;;;21.80;42.14;101935.94;5048958;28;9340;-71
2022/05/12 11:39:39;;;;;;;;;3.00;3.00;;;;;21.80;42.09;101933.28;5049112;28;9626;-70
2022/05/12 11:42:21;;;;;;;;;3.00;2.00;;;;;21.84;42.23;101945.66;5049553;28;9341;-70
2022/05/12 11:45:03;;;;;;;;;1.00;1.00;;;;;21.86;42.39;101945.66;5049046;28;9511;-70
2022/05/12 11:48:01;;;;;;;;;2.00;2.00;;;;;21.82;42.31;101941.25;5047706;28;9434;-71
2022/05/12 11:50:48;;;;;;;;;1.33;1.33;;;;;21.85;42.12;101946.53;5048719;28;9361;-70
2022/05/12 11:53:19;;;;;;;;;2.00;2.00;;;;;21.87;42.35;101947.41;5049574;28;9521;-71
2022/05/12 11:56:05;;;;;;;;;1.75;1.75;;;;;21.87;42.02;101950.94;5048704;28;9189;-71
2022/05/12 11:58:33;;;;;;;;;1.50;1.50;;;;;21.83;42.19;101940.34;5049363;28;9239;-70
2022/05/12 12:01:01;;;;;;;;;2.00;2.00;;;;;21.88;42.35;101950.06;5049413;28;9674;-70
2022/05/12 12:03:26;;;;;;;;;1.75;1.75;;;;;21.90;42.11;101939.38;5053032;28;9388;-70